createdAt,value
2017-09-12T00:00:32.631Z,15.28
2017-09-12T00:01:33.277Z,15.17
2017-09-12T00:02:32.670Z,15.28
2017-09-12T00:03:32.693Z,15.14
2017-09-12T00:04:32.714Z,15.21
2017-09-12T00:05:32.787Z,15.18
2017-09-12T00:06:32.750Z,15.15
2017-09-12T00:07:32.770Z,15.09
2017-09-12T00:08:32.793Z,15.06
2017-09-12T00:09:32.818Z,15.03
2017-09-12T00:10:32.840Z,15.04
2017-09-12T00:11:32.874Z,15.11
2017-09-12T00:12:32.879Z,15.19
2017-09-12T00:13:32.898Z,15.22
2017-09-12T00:14:32.922Z,15.21
2017-09-12T00:15:32.943Z,15.33
2017-09-12T00:16:32.962Z,15.28
2017-09-12T00:17:33.014Z,15.39
2017-09-12T00:18:33.007Z,15.4
2017-09-12T00:19:33.030Z,15.39
2017-09-12T00:20:33.044Z,15.35
2017-09-12T00:21:33.096Z,15.31
2017-09-12T00:22:33.087Z,15.37
2017-09-12T00:23:33.108Z,15.43
2017-09-12T00:24:33.131Z,15.35
2017-09-12T00:25:33.153Z,15.4
2017-09-12T00:26:33.176Z,15.19
2017-09-12T00:27:33.198Z,15.22
2017-09-12T00:28:33.216Z,15.31
2017-09-12T00:29:33.244Z,15.35
2017-09-12T00:30:33.258Z,15.31
2017-09-12T00:31:40.859Z,15.28
2017-09-12T00:32:33.434Z,15.36
2017-09-12T00:33:33.330Z,15.35
2017-09-12T00:34:33.343Z,15.42
2017-09-12T00:35:33.363Z,15.36
2017-09-12T00:36:33.389Z,15.22
2017-09-12T00:37:33.460Z,15.35
2017-09-12T00:38:33.426Z,15.27
2017-09-12T00:39:33.559Z,15.24
2017-09-12T00:40:33.469Z,15.22
2017-09-12T00:41:33.490Z,15.21
2017-09-12T00:42:33.515Z,15.18
2017-09-12T00:43:33.533Z,15.18
2017-09-12T00:44:33.561Z,15.21
2017-09-12T00:45:33.576Z,15.21
2017-09-12T00:46:33.913Z,15.25
2017-09-12T00:47:33.654Z,15.22
2017-09-12T00:48:33.644Z,15.21
2017-09-12T00:49:33.672Z,15.17
2017-09-12T00:50:33.703Z,15.09
2017-09-12T00:51:33.720Z,15.11
2017-09-12T00:52:33.777Z,15.03
2017-09-12T00:53:34.067Z,15.11
2017-09-12T00:54:34.094Z,15.07
2017-09-12T00:55:33.795Z,14.96
2017-09-12T00:56:33.815Z,14.88
2017-09-12T00:57:33.826Z,14.86
2017-09-12T00:58:33.852Z,14.88
2017-09-12T00:59:33.876Z,14.92
2017-09-12T01:00:34.204Z,14.96
2017-09-12T01:01:33.915Z,14.85
2017-09-12T01:02:33.938Z,14.85
2017-09-12T01:03:33.967Z,14.91
2017-09-12T01:04:34.040Z,14.88
2017-09-12T01:05:33.999Z,14.96
2017-09-12T01:06:34.016Z,14.92
2017-09-12T01:07:34.404Z,14.97
2017-09-12T01:08:34.062Z,15.02
2017-09-12T01:09:34.086Z,14.97
2017-09-12T01:10:34.108Z,14.86
2017-09-12T01:11:34.439Z,15.04
2017-09-12T01:12:34.160Z,14.92
2017-09-12T01:13:34.187Z,14.99
2017-09-12T01:14:34.188Z,15.03
2017-09-12T01:15:34.208Z,15.06
2017-09-12T01:16:34.230Z,14.91
2017-09-12T01:17:34.255Z,14.92
2017-09-12T01:18:34.268Z,14.92
2017-09-12T01:19:34.297Z,14.84
2017-09-12T01:20:34.308Z,14.89
2017-09-12T01:21:34.333Z,15
2017-09-12T01:22:34.362Z,14.96
2017-09-12T01:23:34.380Z,14.84
2017-09-12T01:24:34.401Z,15
2017-09-12T01:25:34.418Z,14.85
2017-09-12T01:26:34.432Z,14.86
2017-09-12T01:27:34.457Z,14.91
2017-09-12T01:28:34.486Z,14.91
2017-09-12T01:29:34.496Z,14.91
2017-09-12T01:30:34.522Z,15.03
2017-09-12T01:31:34.541Z,15.19
2017-09-12T01:32:34.882Z,15.18
2017-09-12T01:33:34.616Z,15.18
2017-09-12T01:34:34.624Z,15.21
2017-09-12T01:35:34.623Z,15.18
2017-09-12T01:36:34.641Z,15.14
2017-09-12T01:37:34.668Z,15.28
2017-09-12T01:38:34.686Z,15.29
2017-09-12T01:39:35.015Z,15.31
2017-09-12T01:40:34.730Z,15.37
2017-09-12T01:41:35.067Z,15.4
2017-09-12T01:42:34.775Z,15.42
2017-09-12T01:43:34.792Z,15.35
2017-09-12T01:44:35.152Z,15.46
2017-09-12T01:45:34.839Z,15.35
2017-09-12T01:46:34.855Z,15.36
2017-09-12T01:47:34.881Z,15.36
2017-09-12T01:48:34.899Z,15.42
2017-09-12T01:49:34.923Z,15.37
2017-09-12T01:50:34.951Z,15.39
2017-09-12T01:51:34.969Z,15.39
2017-09-12T01:52:35.302Z,15.39
2017-09-12T01:53:35.003Z,15.37
2017-09-12T01:54:35.022Z,15.4
2017-09-12T01:55:35.046Z,15.39
2017-09-12T01:56:35.090Z,15.35
2017-09-12T01:57:35.401Z,15.31
2017-09-12T01:58:35.126Z,15.36
2017-09-12T01:59:35.131Z,15.37
2017-09-12T02:00:35.158Z,15.36
2017-09-12T02:01:35.483Z,15.24
2017-09-12T02:02:35.195Z,15.24
2017-09-12T02:03:35.213Z,15.19
2017-09-12T02:04:35.244Z,15.25
2017-09-12T02:05:35.254Z,15.22
2017-09-12T02:06:35.277Z,15.15
2017-09-12T02:07:35.298Z,15.17
2017-09-12T02:08:35.836Z,15.22
2017-09-12T02:09:35.342Z,15.09
2017-09-12T02:10:35.373Z,15.17
2017-09-12T02:11:35.383Z,15.03
2017-09-12T02:12:35.409Z,15.11
2017-09-12T02:13:35.453Z,15.07
2017-09-12T02:14:35.442Z,15.06
2017-09-12T02:15:35.465Z,15.03
2017-09-12T02:16:35.486Z,15.03
2017-09-12T02:17:35.511Z,15.03
2017-09-12T02:18:35.533Z,15.18
2017-09-12T02:19:35.549Z,15.17
2017-09-12T02:20:35.570Z,15.11
2017-09-12T02:21:35.593Z,15.02
2017-09-12T02:22:35.616Z,15.14
2017-09-12T02:23:35.633Z,14.97
2017-09-12T02:24:35.662Z,15.03
2017-09-12T02:25:35.676Z,15.07
2017-09-12T02:26:35.698Z,15.03
2017-09-12T02:27:36.037Z,15.1
2017-09-12T02:28:35.741Z,15.04
2017-09-12T02:29:35.761Z,15.04
2017-09-12T02:30:36.085Z,15.06
2017-09-12T02:31:35.800Z,15.07
2017-09-12T02:32:35.823Z,15.03
2017-09-12T02:33:35.841Z,15.09
2017-09-12T02:34:35.873Z,15.03
2017-09-12T02:35:36.196Z,15.11
2017-09-12T02:36:36.221Z,15.11
2017-09-12T02:37:35.931Z,15.1
2017-09-12T02:38:36.002Z,15.19
2017-09-12T02:39:35.968Z,15.18
2017-09-12T02:40:35.995Z,15.1
2017-09-12T02:41:36.015Z,15.17
2017-09-12T02:42:36.030Z,15.18
2017-09-12T02:43:36.049Z,15.21
2017-09-12T02:44:36.385Z,15.33
2017-09-12T02:45:36.093Z,15.4
2017-09-12T02:46:36.114Z,15.52
2017-09-12T02:47:36.133Z,15.54
2017-09-12T02:48:36.158Z,15.65
2017-09-12T02:49:36.177Z,15.8
2017-09-12T02:50:36.252Z,15.72
2017-09-12T02:51:36.248Z,15.77
2017-09-12T02:52:36.559Z,15.84
2017-09-12T02:53:36.260Z,15.75
2017-09-12T02:54:36.280Z,15.72
2017-09-12T02:55:36.302Z,15.72
2017-09-12T02:56:36.330Z,15.75
2017-09-12T02:57:36.345Z,15.75
2017-09-12T02:58:36.368Z,15.77
2017-09-12T02:59:36.389Z,15.76
2017-09-12T03:00:36.406Z,15.8
2017-09-12T03:01:36.429Z,15.76
2017-09-12T03:02:36.449Z,15.84
2017-09-12T03:03:36.469Z,15.76
2017-09-12T03:04:36.811Z,15.75
2017-09-12T03:05:36.513Z,15.79
2017-09-12T03:06:36.544Z,15.65
2017-09-12T03:07:36.562Z,15.62
2017-09-12T03:08:36.581Z,15.55
2017-09-12T03:09:36.651Z,15.7
2017-09-12T03:10:36.622Z,15.76
2017-09-12T03:11:36.643Z,15.8
2017-09-12T03:12:36.662Z,15.8
2017-09-12T03:13:36.705Z,15.83
2017-09-12T03:14:36.705Z,15.76
2017-09-12T03:15:36.730Z,15.83
2017-09-12T03:16:36.747Z,15.75
2017-09-12T03:17:36.773Z,15.77
2017-09-12T03:18:36.791Z,15.76
2017-09-12T03:19:36.817Z,15.67
2017-09-12T03:20:36.836Z,15.79
2017-09-12T03:21:36.857Z,15.67
2017-09-12T03:22:36.884Z,15.79
2017-09-12T03:23:37.222Z,15.77
2017-09-12T03:24:36.926Z,15.67
2017-09-12T03:25:36.947Z,15.55
2017-09-12T03:26:36.972Z,15.57
2017-09-12T03:27:36.987Z,15.49
2017-09-12T03:28:37.061Z,15.4
2017-09-12T03:29:37.030Z,15.57
2017-09-12T03:30:37.059Z,15.58
2017-09-12T03:31:37.076Z,15.68
2017-09-12T03:32:37.093Z,15.64
2017-09-12T03:33:37.121Z,15.77
2017-09-12T03:34:37.134Z,15.79
2017-09-12T03:35:37.172Z,15.72
2017-09-12T03:36:37.180Z,15.68
2017-09-12T03:37:37.204Z,15.73
2017-09-12T03:38:37.220Z,15.61
2017-09-12T03:39:37.568Z,15.61
2017-09-12T03:40:37.268Z,15.59
2017-09-12T03:41:37.285Z,15.4
2017-09-12T03:42:37.311Z,15.51
2017-09-12T03:43:37.329Z,15.52
2017-09-12T03:44:37.359Z,15.52
2017-09-12T03:45:37.375Z,15.58
2017-09-12T03:46:37.393Z,15.55
2017-09-12T03:47:37.429Z,15.58
2017-09-12T03:48:37.448Z,15.59
2017-09-12T03:49:37.476Z,15.37
2017-09-12T03:50:37.479Z,15.57
2017-09-12T03:51:37.512Z,15.51
2017-09-12T03:52:37.531Z,15.44
2017-09-12T03:53:37.544Z,15.43
2017-09-12T03:54:37.565Z,15.46
2017-09-12T03:55:37.586Z,15.36
2017-09-12T03:56:37.611Z,15.39
2017-09-12T03:57:37.633Z,15.36
2017-09-12T03:58:37.673Z,15.37
2017-09-12T03:59:37.674Z,15.21
2017-09-12T04:00:37.692Z,15.25
2017-09-12T04:01:38.026Z,15.22
2017-09-12T04:02:37.732Z,15.28
2017-09-12T04:03:38.063Z,15.19
2017-09-12T04:04:37.791Z,15.21
2017-09-12T04:05:37.797Z,15.04
2017-09-12T04:06:37.826Z,14.97
2017-09-12T04:07:37.836Z,15.06
2017-09-12T04:08:37.858Z,14.88
2017-09-12T04:09:37.886Z,14.85
2017-09-12T04:10:37.900Z,15.02
2017-09-12T04:11:37.921Z,15
2017-09-12T04:12:37.952Z,14.94
2017-09-12T04:13:37.992Z,15
2017-09-12T04:14:37.994Z,15.15
2017-09-12T04:15:38.014Z,15.02
2017-09-12T04:16:38.034Z,15.03
2017-09-12T04:17:38.054Z,15.03
2017-09-12T04:18:38.122Z,15.02
2017-09-12T04:19:38.105Z,15.02
2017-09-12T04:20:38.115Z,14.88
2017-09-12T04:21:38.133Z,14.88
2017-09-12T04:22:38.158Z,14.96
2017-09-12T04:23:38.174Z,15.04
2017-09-12T04:24:38.199Z,15.03
2017-09-12T04:25:38.215Z,15.07
2017-09-12T04:26:38.244Z,15.15
2017-09-12T04:27:38.262Z,15.02
2017-09-12T04:28:38.278Z,15.03
2017-09-12T04:29:38.308Z,15.11
2017-09-12T04:30:38.323Z,15.19
2017-09-12T04:31:38.341Z,15.18
2017-09-12T04:32:38.690Z,15.22
2017-09-12T04:33:38.822Z,15.28
2017-09-12T04:34:38.402Z,15.18
2017-09-12T04:35:38.741Z,15.19
2017-09-12T04:36:38.458Z,15.06
2017-09-12T04:37:38.468Z,15.09
2017-09-12T04:38:38.546Z,15.18
2017-09-12T04:39:38.511Z,15.18
2017-09-12T04:40:38.536Z,15.18
2017-09-12T04:41:38.547Z,15.37
2017-09-12T04:42:38.576Z,15.29
2017-09-12T04:43:38.597Z,15.36
2017-09-12T04:44:38.618Z,15.31
2017-09-12T04:45:38.646Z,15.24
2017-09-12T04:46:38.660Z,15.22
2017-09-12T04:47:38.674Z,15.28
2017-09-12T04:48:38.696Z,15.18
2017-09-12T04:49:38.734Z,15.1
2017-09-12T04:50:39.054Z,15.09
2017-09-12T04:51:38.761Z,15.14
2017-09-12T04:52:38.895Z,15.11
2017-09-12T04:53:38.823Z,15
2017-09-12T04:54:38.874Z,14.94
2017-09-12T04:55:38.844Z,14.91
2017-09-12T04:56:39.126Z,14.88
2017-09-12T04:57:38.887Z,15.11
2017-09-12T04:58:38.910Z,15.06
2017-09-12T04:59:38.927Z,14.88
2017-09-12T05:00:38.947Z,14.88
2017-09-12T05:01:38.969Z,14.84
2017-09-12T05:02:39.308Z,14.89
2017-09-12T05:03:39.020Z,14.86
2017-09-12T05:04:39.039Z,14.96
2017-09-12T05:05:39.059Z,14.79
2017-09-12T05:06:39.093Z,14.92
2017-09-12T05:07:39.096Z,14.91
2017-09-12T05:08:39.122Z,14.86
2017-09-12T05:09:39.142Z,14.89
2017-09-12T05:10:39.162Z,15.02
2017-09-12T05:11:39.494Z,15.02
2017-09-12T05:12:39.204Z,14.97
2017-09-12T05:13:39.218Z,15.02
2017-09-12T05:14:39.249Z,14.92
2017-09-12T05:15:39.267Z,14.94
2017-09-12T05:16:39.280Z,14.79
2017-09-12T05:17:39.301Z,14.84
2017-09-12T05:18:39.324Z,14.7
2017-09-12T05:19:39.353Z,14.73
2017-09-12T05:20:39.684Z,14.79
2017-09-12T05:21:39.388Z,14.86
2017-09-12T05:22:39.409Z,14.85
2017-09-12T05:23:39.425Z,14.92
2017-09-12T05:24:39.450Z,14.88
2017-09-12T05:25:39.473Z,14.91
2017-09-12T05:26:39.490Z,14.89
2017-09-12T05:27:39.510Z,14.72
2017-09-12T05:28:39.902Z,14.69
2017-09-12T05:29:39.877Z,14.72
2017-09-12T05:30:39.574Z,14.79
2017-09-12T05:31:39.610Z,14.84
2017-09-12T05:32:39.644Z,14.81
2017-09-12T05:33:39.642Z,14.82
2017-09-12T05:34:39.660Z,14.77
2017-09-12T05:35:39.682Z,14.82
2017-09-12T05:36:39.704Z,14.73
2017-09-12T05:37:39.719Z,14.78
2017-09-12T05:38:39.742Z,14.81
2017-09-12T05:39:39.765Z,14.7
2017-09-12T05:40:39.790Z,14.7
2017-09-12T05:41:39.806Z,14.73
2017-09-12T05:42:39.829Z,14.62
2017-09-12T05:43:39.854Z,14.58
2017-09-12T05:44:40.181Z,14.63
2017-09-12T05:45:39.894Z,14.63
2017-09-12T05:46:39.911Z,14.73
2017-09-12T05:47:39.984Z,14.55
2017-09-12T05:48:39.956Z,14.63
2017-09-12T05:49:39.972Z,14.66
2017-09-12T05:50:39.992Z,14.72
2017-09-12T05:51:40.015Z,14.73
2017-09-12T05:52:40.047Z,14.77
2017-09-12T05:53:40.076Z,14.77
2017-09-12T05:54:40.076Z,14.73
2017-09-12T05:55:40.112Z,14.6
2017-09-12T05:56:40.115Z,14.55
2017-09-12T05:57:40.138Z,14.6
2017-09-12T05:58:40.160Z,14.55
2017-09-12T05:59:40.484Z,14.55
2017-09-12T06:00:40.514Z,14.78
2017-09-12T06:01:40.220Z,14.73
2017-09-12T06:02:40.552Z,14.81
2017-09-12T06:03:40.577Z,14.96
2017-09-12T06:04:40.334Z,14.85
2017-09-12T06:05:40.305Z,14.91
2017-09-12T06:06:40.331Z,14.84
2017-09-12T06:07:40.348Z,15.03
2017-09-12T06:08:40.377Z,14.99
2017-09-12T06:09:40.408Z,15.15
2017-09-12T06:10:40.417Z,14.94
2017-09-12T06:11:40.437Z,14.96
2017-09-12T06:12:40.460Z,14.86
2017-09-12T06:13:40.485Z,14.91
2017-09-12T06:14:40.494Z,14.88
2017-09-12T06:15:40.535Z,14.84
2017-09-12T06:16:40.540Z,14.86
2017-09-12T06:17:40.554Z,14.89
2017-09-12T06:18:40.579Z,14.88
2017-09-12T06:19:40.601Z,14.89
2017-09-12T06:20:40.671Z,14.89
2017-09-12T06:21:40.641Z,14.91
2017-09-12T06:22:40.973Z,14.92
2017-09-12T06:23:41.000Z,14.89
2017-09-12T06:24:40.704Z,14.82
2017-09-12T06:25:40.727Z,14.86
2017-09-12T06:26:40.747Z,14.82
2017-09-12T06:27:40.764Z,14.82
2017-09-12T06:28:40.788Z,14.88
2017-09-12T06:29:40.814Z,14.72
2017-09-12T06:30:40.830Z,14.82
2017-09-12T06:31:40.862Z,14.84
2017-09-12T06:32:40.873Z,14.6
2017-09-12T06:33:40.891Z,14.6
2017-09-12T06:34:40.916Z,14.65
2017-09-12T06:35:40.940Z,14.59
2017-09-12T06:36:40.951Z,14.69
2017-09-12T06:37:40.974Z,14.59
2017-09-12T06:38:41.308Z,14.59
2017-09-12T06:39:41.018Z,14.53
2017-09-12T06:40:41.088Z,14.59
2017-09-12T06:41:41.057Z,14.6
2017-09-12T06:42:41.088Z,14.59
2017-09-12T06:43:41.418Z,14.58
2017-09-12T06:44:41.128Z,14.55
2017-09-12T06:45:41.147Z,14.47
2017-09-12T06:46:41.161Z,14.6
2017-09-12T06:47:41.197Z,14.51
2017-09-12T06:48:41.202Z,14.47
2017-09-12T06:49:41.236Z,14.5
2017-09-12T06:50:41.244Z,14.44
2017-09-12T06:51:41.272Z,14.22
2017-09-12T06:52:41.292Z,14.22
2017-09-12T06:53:41.326Z,14.36
2017-09-12T06:54:41.332Z,14.33
2017-09-12T06:55:41.351Z,14.25
2017-09-12T06:56:41.418Z,14.3
2017-09-12T06:57:41.394Z,14.33
2017-09-12T06:58:41.410Z,14.44
2017-09-12T06:59:41.430Z,14.45
2017-09-12T07:00:41.452Z,14.32
2017-09-12T07:01:41.472Z,14.33
2017-09-12T07:02:41.492Z,14.5
2017-09-12T07:03:41.521Z,14.5
2017-09-12T07:04:41.547Z,14.37
2017-09-12T07:05:41.552Z,14.54
2017-09-12T07:06:41.579Z,14.6
2017-09-12T07:07:41.595Z,14.5
2017-09-12T07:08:41.630Z,14.41
2017-09-12T07:09:41.662Z,14.51
2017-09-12T07:10:41.685Z,14.51
2017-09-12T07:11:41.727Z,14.33
2017-09-12T07:12:41.702Z,14.2
2017-09-12T07:13:41.718Z,14.3
2017-09-12T07:14:41.742Z,14.3
2017-09-12T07:15:41.772Z,14.28
2017-09-12T07:16:41.778Z,14.32
2017-09-12T07:17:41.804Z,14.32
2017-09-12T07:18:41.833Z,14.35
2017-09-12T07:19:41.843Z,14.22
2017-09-12T07:20:41.872Z,14.32
2017-09-12T07:21:41.891Z,14.23
2017-09-12T07:22:41.906Z,14.2
2017-09-12T07:23:41.927Z,14.18
2017-09-12T07:24:41.952Z,14.35
2017-09-12T07:25:41.979Z,14.44
2017-09-12T07:26:42.037Z,14.51
2017-09-12T07:27:42.007Z,14.62
2017-09-12T07:28:42.030Z,14.54
2017-09-12T07:29:42.044Z,14.53
2017-09-12T07:30:42.067Z,14.5
2017-09-12T07:31:42.087Z,14.53
2017-09-12T07:32:42.111Z,14.54
2017-09-12T07:33:42.139Z,14.5
2017-09-12T07:34:42.151Z,14.5
2017-09-12T07:35:42.168Z,14.5
2017-09-12T07:36:42.195Z,14.6
2017-09-12T07:37:42.213Z,14.51
2017-09-12T07:38:42.239Z,14.48
2017-09-12T07:39:42.253Z,14.35
2017-09-12T07:40:42.276Z,14.22
2017-09-12T07:41:42.348Z,14.18
2017-09-12T07:42:42.317Z,13.97
2017-09-12T07:43:42.967Z,13.87
2017-09-12T07:44:42.358Z,14.11
2017-09-12T07:45:42.379Z,14.04
2017-09-12T07:46:42.398Z,13.99
2017-09-12T07:47:42.424Z,14.07
2017-09-12T07:48:42.441Z,14.15
2017-09-12T07:49:42.459Z,14.22
2017-09-12T07:50:42.480Z,14.15
2017-09-12T07:51:42.816Z,14.26
2017-09-12T07:52:42.526Z,14.23
2017-09-12T07:53:42.540Z,14.15
2017-09-12T07:54:42.561Z,14.23
2017-09-12T07:55:42.582Z,14.18
2017-09-12T07:56:42.662Z,14.12
2017-09-12T07:57:42.634Z,14.12
2017-09-12T07:58:43.147Z,14.23
2017-09-12T07:59:42.794Z,14.18
2017-09-12T08:00:42.689Z,14.22
2017-09-12T08:01:42.896Z,14.23
2017-09-12T08:02:45.141Z,14.08
2017-09-12T08:03:44.937Z,14.1
2017-09-12T08:04:46.449Z,14.12
2017-09-12T08:05:45.940Z,14.23
2017-09-12T08:06:45.690Z,14.18
2017-09-12T08:07:47.897Z,14.28
2017-09-12T08:08:45.057Z,14.29
2017-09-12T08:09:45.066Z,14.44
2017-09-12T08:10:45.020Z,14.44
2017-09-12T08:11:44.908Z,14.33
2017-09-12T08:12:42.943Z,14.48
2017-09-12T08:13:43.295Z,14.5
2017-09-12T08:14:42.974Z,14.48
2017-09-12T08:15:42.995Z,14.6
2017-09-12T08:16:43.016Z,14.6
2017-09-12T08:17:43.386Z,14.44
2017-09-12T08:18:43.378Z,14.58
2017-09-12T08:19:43.078Z,14.47
2017-09-12T08:20:43.103Z,14.43
2017-09-12T08:21:43.131Z,14.41
2017-09-12T08:22:43.146Z,14.59
2017-09-12T08:23:43.171Z,14.45
2017-09-12T08:24:43.213Z,14.33
2017-09-12T08:25:43.211Z,14.37
2017-09-12T08:26:43.223Z,14.54
2017-09-12T08:27:43.245Z,14.41
2017-09-12T08:28:43.323Z,14.36
2017-09-12T08:29:43.285Z,14.28
2017-09-12T08:30:43.309Z,14.22
2017-09-12T08:31:43.642Z,14.18
2017-09-12T08:32:43.351Z,14.11
2017-09-12T08:33:43.371Z,14.08
2017-09-12T08:34:43.392Z,14.18
2017-09-12T08:35:43.410Z,14.2
2017-09-12T08:36:43.431Z,14.28
2017-09-12T08:37:43.453Z,14.29
2017-09-12T08:38:43.477Z,14.14
2017-09-12T08:39:43.500Z,14.17
2017-09-12T08:40:43.521Z,13.97
2017-09-12T08:41:43.558Z,14.07
2017-09-12T08:42:43.712Z,14.07
2017-09-12T08:43:43.580Z,14.22
2017-09-12T08:44:43.608Z,14.17
2017-09-12T08:45:43.626Z,14.32
2017-09-12T08:46:43.639Z,14.32
2017-09-12T08:47:43.660Z,14.28
2017-09-12T08:48:43.686Z,14.15
2017-09-12T08:49:43.698Z,14.29
2017-09-12T08:50:43.744Z,14.29
2017-09-12T08:51:43.751Z,14.35
2017-09-12T08:52:43.764Z,14.33
2017-09-12T08:53:43.786Z,14.35
2017-09-12T08:54:43.856Z,14.33
2017-09-12T08:55:43.824Z,14.43
2017-09-12T08:56:43.843Z,14.55
2017-09-12T08:57:43.863Z,14.53
2017-09-12T08:58:43.886Z,14.6
2017-09-12T08:59:43.903Z,14.62
2017-09-12T09:00:43.928Z,14.65
2017-09-12T09:01:43.949Z,14.58
2017-09-12T09:02:43.974Z,14.73
2017-09-12T09:03:43.994Z,14.72
2017-09-12T09:04:44.023Z,14.73
2017-09-12T09:05:44.029Z,14.59
2017-09-12T09:06:44.423Z,14.77
2017-09-12T09:07:44.074Z,14.65
2017-09-12T09:08:44.092Z,14.58
2017-09-12T09:09:44.110Z,14.55
2017-09-12T09:10:45.091Z,14.66
2017-09-12T09:11:44.155Z,14.63
2017-09-12T09:12:44.175Z,14.6
2017-09-12T09:13:44.197Z,14.72
2017-09-12T09:14:44.526Z,14.73
2017-09-12T09:15:44.245Z,14.88
2017-09-12T09:16:44.269Z,15.03
2017-09-12T09:17:44.280Z,14.92
2017-09-12T09:18:44.615Z,15.03
2017-09-12T09:19:44.342Z,15.11
2017-09-12T09:20:44.341Z,15.28
2017-09-12T09:21:44.364Z,15.22
2017-09-12T09:22:44.706Z,15.14
2017-09-12T09:23:44.422Z,14.96
2017-09-12T09:24:44.426Z,15.07
2017-09-12T09:25:44.448Z,15.17
2017-09-12T09:26:44.504Z,15.25
2017-09-12T09:27:44.809Z,15.42
2017-09-12T09:28:44.522Z,15.39
2017-09-12T09:29:44.544Z,15.29
2017-09-12T09:30:44.556Z,15.28
2017-09-12T09:31:44.634Z,15.39
2017-09-12T09:32:44.599Z,15.36
2017-09-12T09:33:44.620Z,15.31
2017-09-12T09:34:44.645Z,15.37
2017-09-12T09:35:44.665Z,15.52
2017-09-12T09:36:44.685Z,15.31
2017-09-12T09:37:44.706Z,15.25
2017-09-12T09:38:44.725Z,15.33
2017-09-12T09:39:44.755Z,15.39
2017-09-12T09:40:44.778Z,15.43
2017-09-12T09:41:44.806Z,15.36
2017-09-12T09:42:44.820Z,15.35
2017-09-12T09:43:44.841Z,15.37
2017-09-12T09:44:44.857Z,15.39
2017-09-12T09:45:44.879Z,15.36
2017-09-12T09:46:44.962Z,15.37
2017-09-12T09:47:44.926Z,15.37
2017-09-12T09:48:44.946Z,15.37
2017-09-12T09:49:44.965Z,15.25
2017-09-12T09:50:44.987Z,15.36
2017-09-12T09:51:45.011Z,15.39
2017-09-12T09:52:45.034Z,15.58
2017-09-12T09:53:45.362Z,15.65
2017-09-12T09:54:45.076Z,15.47
2017-09-12T09:55:45.417Z,15.54
2017-09-12T09:56:45.123Z,15.75
2017-09-12T09:57:45.145Z,15.67
2017-09-12T09:58:45.167Z,15.8
2017-09-12T09:59:45.193Z,15.9
2017-09-12T10:00:45.203Z,16.04
2017-09-12T10:01:45.225Z,16.02
2017-09-12T10:02:45.255Z,16.13
2017-09-12T10:03:45.584Z,16.1
2017-09-12T10:04:45.308Z,16.08
2017-09-12T10:05:45.315Z,15.79
2017-09-12T10:06:45.334Z,15.62
2017-09-12T10:07:45.363Z,15.57
2017-09-12T10:08:45.382Z,15.68
2017-09-12T10:09:45.398Z,15.83
2017-09-12T10:10:45.423Z,15.84
2017-09-12T10:11:45.446Z,15.83
2017-09-12T10:12:45.471Z,15.98
2017-09-12T10:13:45.483Z,15.98
2017-09-12T10:14:45.510Z,16
2017-09-12T10:15:45.532Z,16.08
2017-09-12T10:16:45.559Z,16.08
2017-09-12T10:17:45.577Z,16.02
2017-09-12T10:18:45.597Z,16.02
2017-09-12T10:19:45.626Z,16.21
2017-09-12T10:20:45.645Z,16.33
2017-09-12T10:21:45.713Z,16.41
2017-09-12T10:22:45.686Z,16.21
2017-09-12T10:23:45.714Z,16.38
2017-09-12T10:24:45.735Z,16.64
2017-09-12T10:25:46.067Z,16.61
2017-09-12T10:26:45.779Z,16.76
2017-09-12T10:27:46.111Z,17.06
2017-09-12T10:28:45.821Z,17.38
2017-09-12T10:29:45.850Z,17.49
2017-09-12T10:30:46.179Z,17.68
2017-09-12T10:31:45.896Z,17.83
2017-09-12T10:32:45.912Z,17.97
2017-09-12T10:33:45.937Z,18.01
2017-09-12T10:34:45.958Z,17.74
2017-09-12T10:35:46.001Z,17.67
2017-09-12T10:36:46.071Z,17.38
2017-09-12T10:37:46.029Z,17.46
2017-09-12T10:38:46.063Z,17.67
2017-09-12T10:39:46.078Z,18
2017-09-12T10:40:46.109Z,17.82
2017-09-12T10:41:46.121Z,18.07
2017-09-12T10:42:46.148Z,18.34
2017-09-12T10:43:46.171Z,18.31
2017-09-12T10:44:46.196Z,18.41
2017-09-12T10:45:46.220Z,18.26
2017-09-12T10:46:46.546Z,18.04
2017-09-12T10:47:46.289Z,17.76
2017-09-12T10:48:46.286Z,17.68
2017-09-12T10:49:46.306Z,17.54
2017-09-12T10:50:46.342Z,17.79
2017-09-12T10:51:46.405Z,17.87
2017-09-12T10:52:46.694Z,17.98
2017-09-12T10:53:46.410Z,18.03
2017-09-12T10:54:46.426Z,18.13
2017-09-12T10:55:46.462Z,18.26
2017-09-12T10:56:46.475Z,18.25
2017-09-12T10:57:46.509Z,18.25
2017-09-12T10:58:46.836Z,18.08
2017-09-12T10:59:46.545Z,18.07
2017-09-12T11:00:46.570Z,18.07
2017-09-12T11:01:46.598Z,18.18
2017-09-12T11:02:46.626Z,18.19
2017-09-12T11:03:46.642Z,18.03
2017-09-12T11:04:46.993Z,17.82
2017-09-12T11:05:46.694Z,17.86
2017-09-12T11:06:46.762Z,18
2017-09-12T11:07:46.730Z,17.9
2017-09-12T11:08:46.757Z,17.56
2017-09-12T11:09:46.785Z,17.33
2017-09-12T11:10:46.808Z,16.96
2017-09-12T11:11:46.831Z,16.21
2017-09-12T11:12:46.850Z,15.92
2017-09-12T11:13:46.876Z,15.82
2017-09-12T11:14:46.894Z,15.77
2017-09-12T11:15:46.920Z,15.47
2017-09-12T11:16:46.938Z,15.31
2017-09-12T11:17:46.967Z,15.18
2017-09-12T11:18:46.992Z,15.18
2017-09-12T11:19:47.007Z,15.29
2017-09-12T11:20:47.345Z,15.21
2017-09-12T11:21:47.063Z,15
2017-09-12T11:22:47.079Z,14.97
2017-09-12T11:23:47.104Z,14.91
2017-09-12T11:24:47.462Z,14.96
2017-09-12T11:25:47.144Z,14.88
2017-09-12T11:26:47.157Z,14.85
2017-09-12T11:27:47.187Z,14.86
2017-09-12T11:28:47.217Z,14.65
2017-09-12T11:29:47.228Z,14.7
2017-09-12T11:30:47.245Z,14.84
2017-09-12T11:31:47.608Z,14.84
2017-09-12T11:32:47.290Z,14.82
2017-09-12T11:33:47.307Z,14.89
2017-09-12T11:34:47.329Z,15.04
2017-09-12T11:35:47.349Z,15.21
2017-09-12T11:36:47.378Z,15.31
2017-09-12T11:37:47.400Z,15.46
2017-09-12T11:38:47.730Z,15.65
2017-09-12T11:39:47.485Z,15.76
2017-09-12T11:40:47.460Z,16.04
2017-09-12T11:41:47.480Z,16.24
2017-09-12T11:42:47.505Z,16.31
2017-09-12T11:43:47.525Z,16.32
2017-09-12T11:44:47.549Z,16.26
2017-09-12T11:45:47.582Z,16.15
2017-09-12T11:46:47.596Z,16.15
2017-09-12T11:47:47.614Z,16.17
2017-09-12T11:48:47.634Z,16.08
2017-09-12T11:49:47.715Z,15.94
2017-09-12T11:50:47.983Z,15.91
2017-09-12T11:51:47.725Z,16.01
2017-09-12T11:52:47.723Z,16.02
2017-09-12T11:53:47.743Z,15.75
2017-09-12T11:54:47.791Z,15.54
2017-09-12T11:55:48.110Z,15.31
2017-09-12T11:56:47.812Z,15.42
2017-09-12T11:57:47.828Z,15.49
2017-09-12T11:58:47.864Z,15.4
2017-09-12T11:59:47.875Z,15.31
2017-09-12T12:00:47.921Z,15.36
2017-09-12T12:01:47.933Z,15.51
2017-09-12T12:02:47.941Z,15.57
2017-09-12T12:03:47.960Z,15.7
2017-09-12T12:04:48.333Z,15.79
2017-09-12T12:05:48.007Z,15.91
2017-09-12T12:06:48.087Z,16.26
2017-09-12T12:07:48.057Z,16.43
2017-09-12T12:08:48.388Z,16.43
2017-09-12T12:09:48.096Z,16.46
2017-09-12T12:10:48.429Z,16.26
2017-09-12T12:11:48.447Z,16.13
2017-09-12T12:12:48.158Z,16.15
2017-09-12T12:13:48.183Z,16.24
2017-09-12T12:14:48.225Z,16.1
2017-09-12T12:15:48.221Z,15.88
2017-09-12T12:16:48.243Z,15.76
2017-09-12T12:17:48.273Z,15.67
2017-09-12T12:18:48.283Z,15.54
2017-09-12T12:19:48.310Z,15.22
2017-09-12T12:20:48.335Z,14.91
2017-09-12T12:21:48.403Z,14.82
2017-09-12T12:22:48.374Z,14.72
2017-09-12T12:23:48.393Z,14.54
2017-09-12T12:24:48.423Z,14.5
2017-09-12T12:25:50.750Z,14.55
2017-09-12T12:26:48.603Z,14.48
2017-09-12T12:27:48.488Z,14.58
2017-09-12T12:28:48.816Z,14.58
2017-09-12T12:29:48.519Z,14.6
2017-09-12T12:30:48.547Z,14.55
2017-09-12T12:31:48.564Z,14.58
2017-09-12T12:32:48.873Z,14.53
2017-09-12T12:33:48.604Z,13.99
2017-09-12T12:34:48.941Z,13.13
2017-09-12T12:35:50.854Z,12.43
2017-09-12T12:36:51.080Z,12.02
2017-09-12T12:37:51.405Z,11.62
2017-09-12T12:38:50.492Z,11.52
2017-09-12T12:39:50.181Z,11.37
2017-09-12T12:40:50.038Z,11.32
2017-09-12T12:41:48.771Z,11.32
2017-09-12T12:42:48.786Z,11.45
2017-09-12T12:43:48.817Z,11.7
2017-09-12T12:44:48.835Z,11.77
2017-09-12T12:45:48.849Z,11.83
2017-09-12T12:46:48.878Z,11.99
2017-09-12T12:47:48.903Z,12.02
2017-09-12T12:48:48.907Z,12.22
2017-09-12T12:49:48.930Z,12.4
2017-09-12T12:50:48.975Z,12.62
2017-09-12T12:51:48.970Z,12.83
2017-09-12T12:52:48.980Z,13.12
2017-09-12T12:53:49.002Z,13.27
2017-09-12T12:54:49.017Z,13.5
2017-09-12T12:55:49.041Z,13.59